createdAt,value
2022-07-27T00:01:39.058Z,15.40
2022-07-27T00:04:08.231Z,15.40
2022-07-27T00:06:37.868Z,15.50
2022-07-27T00:09:06.830Z,15.60
2022-07-27T00:11:37.193Z,15.80
2022-07-27T00:14:06.062Z,15.90
2022-07-27T00:16:35.004Z,16.00
2022-07-27T00:19:03.795Z,16.10
2022-07-27T00:21:32.847Z,16.20
2022-07-27T00:24:02.079Z,16.30
2022-07-27T00:26:30.752Z,16.30
2022-07-27T00:29:00.990Z,16.30
2022-07-27T00:31:29.925Z,16.30
2022-07-27T00:33:58.603Z,16.20
2022-07-27T00:36:27.563Z,16.20
2022-07-27T00:38:56.829Z,16.20
2022-07-27T00:41:25.599Z,16.30
2022-07-27T00:43:56.444Z,16.30
2022-07-27T00:46:28.125Z,16.20
2022-07-27T00:48:57.033Z,16.30
2022-07-27T00:51:26.939Z,16.20
2022-07-27T00:53:56.049Z,16.30
2022-07-27T00:56:25.179Z,16.20
2022-07-27T00:58:55.144Z,16.20
2022-07-27T01:01:23.904Z,16.20
2022-07-27T01:03:54.066Z,16.30
2022-07-27T01:06:27.096Z,16.30
2022-07-27T01:09:17.366Z,16.30
2022-07-27T01:11:46.842Z,16.30
2022-07-27T01:14:17.008Z,16.30
2022-07-27T01:16:46.079Z,16.30
2022-07-27T01:19:17.481Z,16.30
2022-07-27T01:21:47.662Z,16.30
2022-07-27T01:24:16.407Z,16.30
2022-07-27T01:26:45.731Z,16.30
2022-07-27T01:29:15.121Z,16.30
2022-07-27T01:31:44.772Z,16.40
2022-07-27T01:34:13.455Z,16.40
2022-07-27T01:36:42.160Z,16.40
2022-07-27T01:39:12.869Z,16.40
2022-07-27T01:41:41.958Z,16.40
2022-07-27T01:44:11.148Z,16.40
2022-07-27T01:46:40.439Z,16.40
2022-07-27T01:49:09.682Z,16.40
2022-07-27T01:51:38.886Z,16.40
2022-07-27T01:54:07.996Z,16.40
2022-07-27T01:56:38.381Z,16.30
2022-07-27T01:59:07.090Z,16.30
2022-07-27T02:01:35.748Z,16.30
2022-07-27T02:04:04.867Z,16.30
2022-07-27T02:06:37.590Z,16.30
2022-07-27T02:09:13.564Z,16.40
2022-07-27T02:12:02.052Z,16.20
2022-07-27T02:14:32.378Z,16.10
2022-07-27T02:17:12.609Z,16.00
2022-07-27T02:19:48.090Z,16.00
2022-07-27T02:22:19.044Z,16.00
2022-07-27T02:24:49.818Z,15.90
2022-07-27T02:27:19.907Z,15.80
2022-07-27T02:29:52.265Z,15.70
2022-07-27T02:32:22.290Z,15.70
2022-07-27T02:34:54.926Z,15.70
2022-07-27T02:37:23.652Z,15.60
2022-07-27T02:39:53.299Z,15.70
2022-07-27T02:42:23.615Z,15.70
2022-07-27T02:44:52.441Z,15.70
2022-07-27T02:47:31.235Z,15.70
2022-07-27T02:50:00.104Z,15.80
2022-07-27T02:52:34.695Z,15.80
2022-07-27T02:55:03.435Z,15.80
2022-07-27T02:57:34.595Z,15.80
2022-07-27T03:00:07.224Z,15.80
2022-07-27T03:02:37.117Z,15.80
2022-07-27T03:05:06.509Z,15.90
2022-07-27T03:07:35.296Z,16.00
2022-07-27T03:10:03.928Z,16.00
2022-07-27T03:12:46.244Z,16.10
2022-07-27T03:15:28.088Z,16.10
2022-07-27T03:17:59.994Z,16.20
2022-07-27T03:20:29.059Z,16.20
2022-07-27T03:22:57.881Z,16.30
2022-07-27T03:25:26.989Z,16.30
2022-07-27T03:28:00.577Z,16.30
2022-07-27T03:30:33.058Z,16.30
2022-07-27T03:33:02.002Z,16.40
2022-07-27T03:35:30.738Z,16.40
2022-07-27T03:37:59.691Z,16.30
2022-07-27T03:40:29.915Z,16.40
2022-07-27T03:43:00.129Z,16.40
2022-07-27T03:45:29.363Z,16.40
2022-07-27T03:47:58.622Z,16.40
2022-07-27T03:50:28.947Z,16.40
2022-07-27T03:52:57.716Z,16.40
2022-07-27T03:55:26.891Z,16.50
2022-07-27T03:57:55.851Z,16.50
2022-07-27T04:00:26.112Z,16.50
2022-07-27T04:02:54.867Z,16.50
2022-07-27T04:05:23.697Z,16.50
2022-07-27T04:07:58.329Z,16.60
2022-07-27T04:10:30.828Z,16.60
2022-07-27T04:13:00.703Z,16.60
2022-07-27T04:15:31.459Z,16.50
2022-07-27T04:18:00.278Z,16.50
2022-07-27T04:20:29.129Z,16.50
2022-07-27T04:22:58.030Z,16.50
2022-07-27T04:25:26.864Z,16.40
2022-07-27T04:27:55.714Z,16.40
2022-07-27T04:30:25.394Z,16.40
2022-07-27T04:32:56.505Z,16.40
2022-07-27T04:35:26.671Z,16.30
2022-07-27T04:37:57.768Z,16.30
2022-07-27T04:40:31.329Z,16.20
2022-07-27T04:43:00.042Z,16.30
2022-07-27T04:45:28.937Z,16.60
2022-07-27T04:47:59.241Z,17.40
2022-07-27T04:50:28.210Z,18.10
2022-07-27T04:52:57.190Z,18.60
2022-07-27T04:55:26.139Z,18.50
2022-07-27T04:57:54.850Z,18.10
2022-07-27T05:00:23.954Z,17.80
2022-07-27T05:02:52.719Z,17.70
2022-07-27T05:05:23.128Z,17.70
2022-07-27T05:07:52.252Z,18.00
2022-07-27T05:10:21.169Z,18.00
2022-07-27T05:12:50.340Z,17.80
2022-07-27T05:15:19.640Z,17.50
2022-07-27T05:17:48.746Z,17.40
2022-07-27T05:20:17.739Z,17.30
2022-07-27T05:22:47.964Z,17.20
2022-07-27T05:25:19.235Z,17.10
2022-07-27T05:27:54.183Z,17.10
2022-07-27T05:30:25.683Z,17.10
2022-07-27T05:32:54.889Z,17.10
2022-07-27T05:35:30.319Z,17.10
2022-07-27T05:38:00.791Z,17.00
2022-07-27T05:40:29.800Z,17.00
2022-07-27T05:42:59.005Z,17.00
2022-07-27T05:45:28.305Z,17.00
2022-07-27T05:47:59.418Z,17.00
2022-07-27T05:50:32.424Z,17.10
2022-07-27T05:53:07.414Z,17.10
2022-07-27T05:55:36.453Z,17.20
2022-07-27T05:58:08.733Z,17.20
2022-07-27T06:00:37.684Z,17.30
2022-07-27T06:03:06.435Z,17.40
2022-07-27T06:05:35.303Z,17.40
2022-07-27T06:08:08.942Z,17.50
2022-07-27T06:10:40.872Z,17.60
2022-07-27T06:13:11.822Z,17.60
2022-07-27T06:15:41.683Z,17.60
2022-07-27T06:18:18.260Z,17.60
2022-07-27T06:20:47.098Z,17.70
2022-07-27T06:23:17.825Z,17.70
2022-07-27T06:25:46.495Z,17.70
2022-07-27T06:28:15.212Z,17.80
2022-07-27T06:30:44.246Z,17.80
2022-07-27T06:33:13.485Z,17.80
2022-07-27T06:35:42.236Z,17.80
2022-07-27T06:38:12.815Z,17.80
2022-07-27T06:40:43.044Z,17.80
2022-07-27T06:43:11.818Z,17.90
2022-07-27T06:45:40.551Z,17.90
2022-07-27T06:48:09.453Z,17.80
2022-07-27T06:50:38.036Z,17.90
2022-07-27T06:53:06.701Z,18.10
2022-07-27T06:55:35.586Z,18.10
2022-07-27T06:58:05.875Z,18.10
2022-07-27T07:00:35.118Z,18.20
2022-07-27T07:03:05.891Z,18.20
2022-07-27T07:05:38.571Z,18.30
2022-07-27T07:08:11.671Z,18.30
2022-07-27T07:10:43.300Z,18.30
2022-07-27T07:13:14.086Z,18.30
2022-07-27T07:15:43.979Z,18.30
2022-07-27T07:18:14.931Z,18.30
2022-07-27T07:20:43.674Z,18.40
2022-07-27T07:23:13.373Z,18.40
2022-07-27T07:25:43.507Z,18.40
2022-07-27T07:28:14.469Z,18.50
2022-07-27T07:30:44.420Z,18.60
2022-07-27T07:33:13.179Z,18.60
2022-07-27T07:36:13.192Z,18.60
2022-07-27T07:38:31.631Z,18.60
2022-07-27T07:41:01.783Z,18.70
2022-07-27T07:43:31.856Z,18.70
2022-07-27T07:46:00.811Z,18.90
2022-07-27T07:48:29.838Z,19.00
2022-07-27T07:50:58.641Z,19.00
2022-07-27T07:53:28.081Z,19.10
2022-07-27T07:55:58.626Z,19.30
2022-07-27T07:58:27.764Z,19.30
2022-07-27T08:00:57.807Z,19.30
2022-07-27T08:03:26.531Z,19.40
2022-07-27T08:05:55.460Z,19.40
2022-07-27T08:08:24.695Z,19.40
2022-07-27T08:10:53.895Z,19.40
2022-07-27T08:13:22.814Z,19.50
2022-07-27T08:15:52.551Z,19.50
2022-07-27T08:18:23.052Z,19.60
2022-07-27T08:20:51.824Z,19.60
2022-07-27T08:23:20.549Z,19.70
2022-07-27T08:25:49.497Z,19.70
2022-07-27T08:28:18.312Z,19.70
2022-07-27T08:30:47.476Z,19.70
2022-07-27T08:33:16.347Z,19.70
2022-07-27T08:35:48.911Z,19.80
2022-07-27T08:38:17.918Z,19.80
2022-07-27T08:40:50.119Z,19.80
2022-07-27T08:43:24.851Z,19.90
2022-07-27T08:45:56.731Z,19.90
2022-07-27T08:48:27.352Z,20.00
2022-07-27T08:50:58.180Z,20.20
2022-07-27T08:53:52.417Z,20.20
2022-07-27T08:56:17.232Z,20.30
2022-07-27T08:58:46.905Z,20.30
2022-07-27T09:01:15.725Z,20.30
2022-07-27T09:03:44.605Z,20.30
2022-07-27T09:06:15.239Z,20.40
2022-07-27T09:08:59.717Z,20.60
2022-07-27T09:11:28.839Z,20.60
2022-07-27T09:14:03.867Z,20.80
2022-07-27T09:17:14.955Z,21.00
2022-07-27T09:19:21.975Z,21.10
2022-07-27T09:21:52.105Z,21.20
2022-07-27T09:24:45.625Z,21.40
2022-07-27T09:27:13.259Z,21.80
2022-07-27T09:29:42.084Z,22.10
2022-07-27T09:32:17.619Z,22.30
2022-07-27T09:34:50.814Z,22.30
2022-07-27T09:37:32.385Z,22.30
2022-07-27T09:40:15.465Z,22.40
2022-07-27T09:45:36.250Z,22.40
2022-07-27T09:48:18.553Z,22.70
2022-07-27T09:51:02.527Z,23.00
2022-07-27T09:53:44.217Z,23.20
2022-07-27T09:56:20.326Z,23.30
2022-07-27T09:58:59.128Z,23.40
2022-07-27T10:01:30.411Z,23.50
2022-07-27T10:04:02.078Z,23.50
2022-07-27T10:06:47.831Z,23.30
2022-07-27T10:09:25.569Z,23.10
2022-07-27T10:11:54.787Z,22.80
2022-07-27T10:14:23.420Z,22.70
2022-07-27T10:16:53.648Z,22.70
2022-07-27T10:19:29.602Z,22.80
2022-07-27T10:21:58.677Z,23.20
2022-07-27T10:24:32.056Z,23.60
2022-07-27T10:27:01.072Z,23.90
2022-07-27T10:29:36.824Z,24.20
2022-07-27T10:32:10.463Z,24.30
2022-07-27T10:34:42.296Z,24.10
2022-07-27T10:37:14.475Z,23.90
2022-07-27T10:39:45.737Z,23.80
2022-07-27T10:42:29.296Z,23.50
2022-07-27T10:45:00.641Z,23.40
2022-07-27T10:47:36.395Z,23.30
2022-07-27T10:50:32.820Z,23.30
2022-07-27T10:53:11.275Z,23.50
2022-07-27T10:55:52.005Z,23.60
2022-07-27T10:58:47.781Z,23.60
2022-07-27T11:01:21.200Z,23.60
2022-07-27T11:03:59.566Z,23.40
2022-07-27T11:06:37.626Z,23.30
2022-07-27T11:12:02.458Z,23.40
2022-07-27T11:14:31.999Z,23.30
2022-07-27T11:17:32.371Z,23.20
2022-07-27T11:19:58.805Z,23.50
2022-07-27T11:23:14.024Z,24.00
2022-07-27T11:25:29.052Z,24.10
2022-07-27T11:27:59.239Z,24.30
2022-07-27T11:30:32.582Z,24.50
2022-07-27T11:33:08.324Z,24.60
2022-07-27T11:35:37.434Z,24.90
2022-07-27T11:38:08.717Z,24.70
2022-07-27T11:40:57.341Z,24.80
2022-07-27T11:43:39.425Z,25.10
2022-07-27T11:46:20.141Z,25.20
2022-07-27T11:49:11.869Z,25.00
2022-07-27T11:51:43.843Z,25.00
2022-07-27T11:54:14.570Z,25.00
2022-07-27T11:56:47.349Z,25.10
2022-07-27T11:59:19.204Z,25.30
2022-07-27T12:01:51.737Z,25.30
2022-07-27T12:04:23.312Z,25.20
2022-07-27T12:07:05.006Z,25.10
2022-07-27T12:09:38.801Z,25.30
2022-07-27T12:12:15.778Z,25.20
2022-07-27T12:14:48.162Z,25.00
2022-07-27T12:17:27.433Z,24.90
2022-07-27T12:20:02.089Z,24.80
2022-07-27T12:22:34.036Z,24.80
2022-07-27T12:25:10.067Z,24.80
2022-07-27T12:27:56.804Z,24.80
2022-07-27T12:30:35.795Z,24.80
2022-07-27T12:33:06.403Z,24.70
2022-07-27T12:35:46.120Z,24.60
2022-07-27T12:38:15.477Z,24.60
2022-07-27T12:40:49.450Z,24.60
2022-07-27T12:43:20.873Z,24.70
2022-07-27T12:45:52.931Z,24.70
2022-07-27T12:48:25.089Z,24.60
2022-07-27T12:51:00.456Z,24.60
2022-07-27T12:53:29.552Z,24.70
2022-07-27T12:55:59.977Z,24.80
2022-07-27T12:58:28.960Z,24.90
2022-07-27T13:00:59.158Z,24.90
2022-07-27T13:03:27.990Z,25.00
2022-07-27T13:05:57.009Z,24.90
2022-07-27T13:08:25.986Z,24.90
2022-07-27T13:10:54.678Z,24.80
2022-07-27T13:13:25.022Z,24.60
2022-07-27T13:15:53.936Z,24.40
2022-07-27T13:18:24.407Z,24.40
2022-07-27T13:20:53.387Z,24.40
2022-07-27T13:23:23.200Z,24.50
2022-07-27T13:25:52.090Z,24.60
2022-07-27T13:28:20.996Z,24.60
2022-07-27T13:30:49.756Z,24.40
2022-07-27T13:33:18.539Z,24.10
2022-07-27T13:35:59.003Z,24.10
2022-07-27T13:38:29.970Z,24.10
2022-07-27T13:40:58.919Z,24.10
2022-07-27T13:43:27.515Z,24.10
2022-07-27T13:45:56.736Z,24.20
2022-07-27T13:48:25.553Z,24.20
2022-07-27T13:50:55.656Z,24.30
2022-07-27T13:53:26.259Z,24.40
2022-07-27T13:55:57.479Z,24.40
2022-07-27T13:58:26.623Z,24.40
2022-07-27T14:00:55.638Z,24.40
2022-07-27T14:03:24.439Z,24.40
2022-07-27T14:05:56.500Z,24.50
2022-07-27T14:08:25.755Z,24.70
2022-07-27T14:10:55.428Z,24.70
2022-07-27T14:13:26.787Z,24.70
2022-07-27T14:15:55.879Z,24.70
2022-07-27T14:18:30.638Z,24.70
2022-07-27T14:21:05.739Z,24.50
2022-07-27T14:23:42.230Z,24.30
2022-07-27T14:26:13.071Z,24.20
2022-07-27T14:28:47.897Z,24.10
2022-07-27T14:31:16.764Z,24.20
2022-07-27T14:33:47.466Z,24.30
2022-07-27T14:36:20.571Z,24.30
2022-07-27T14:38:51.287Z,24.40
2022-07-27T14:41:22.527Z,24.50
2022-07-27T14:43:52.151Z,24.60
2022-07-27T14:46:20.861Z,24.70
2022-07-27T14:49:07.719Z,24.90
2022-07-27T14:51:38.718Z,25.10
2022-07-27T14:54:08.581Z,25.10
2022-07-27T14:56:38.660Z,25.10
2022-07-27T14:59:07.732Z,25.10
2022-07-27T15:01:37.456Z,25.40
2022-07-27T15:04:06.559Z,25.30
2022-07-27T15:06:39.026Z,25.20
2022-07-27T15:09:08.606Z,25.20
2022-07-27T15:11:38.042Z,25.30
2022-07-27T15:14:06.957Z,25.50
2022-07-27T15:16:36.455Z,25.80
2022-07-27T15:19:05.148Z,25.90
2022-07-27T15:21:36.280Z,25.70
2022-07-27T15:24:07.344Z,25.50
2022-07-27T15:26:36.866Z,25.30
2022-07-27T15:29:05.835Z,25.20
2022-07-27T15:31:34.993Z,25.00
2022-07-27T15:34:05.862Z,25.00
2022-07-27T15:36:38.879Z,24.90
2022-07-27T15:39:14.076Z,25.10
2022-07-27T15:41:43.210Z,25.50
2022-07-27T15:44:12.182Z,25.50
2022-07-27T15:46:40.978Z,25.60
2022-07-27T15:49:10.617Z,25.50
2022-07-27T15:51:40.199Z,25.40
2022-07-27T15:54:08.992Z,25.30
2022-07-27T15:56:40.827Z,25.20
2022-07-27T15:59:09.878Z,25.00
2022-07-27T16:01:38.798Z,24.90
2022-07-27T16:04:08.123Z,24.70
2022-07-27T16:06:39.344Z,24.60
2022-07-27T16:09:10.450Z,24.30
2022-07-27T16:11:41.413Z,24.10
2022-07-27T16:14:12.625Z,24.00
2022-07-27T16:16:41.393Z,23.90
2022-07-27T16:19:14.147Z,23.80
2022-07-27T16:21:54.179Z,23.80
2022-07-27T16:24:26.849Z,23.80
2022-07-27T16:26:57.464Z,23.80
2022-07-27T16:29:30.624Z,23.70
2022-07-27T16:32:02.373Z,23.60
2022-07-27T16:34:33.385Z,23.40
2022-07-27T16:37:02.567Z,23.40
2022-07-27T16:39:33.547Z,23.30
2022-07-27T16:42:06.640Z,23.20
2022-07-27T16:44:36.538Z,23.20
2022-07-27T16:47:07.072Z,23.20
2022-07-27T16:49:37.117Z,23.10
2022-07-27T16:52:10.053Z,23.00
2022-07-27T16:54:41.219Z,22.90
2022-07-27T16:57:11.762Z,22.80
2022-07-27T16:59:41.860Z,22.70
2022-07-27T17:02:11.414Z,22.70
2022-07-27T17:04:40.480Z,22.60
2022-07-27T17:07:12.696Z,22.60
2022-07-27T17:09:41.752Z,22.50
2022-07-27T17:12:15.728Z,22.30
2022-07-27T17:14:51.596Z,22.10
2022-07-27T17:17:24.107Z,22.00
2022-07-27T17:19:57.743Z,22.00
2022-07-27T17:22:26.423Z,22.00
2022-07-27T17:25:00.256Z,21.90
2022-07-27T17:27:30.427Z,21.90
2022-07-27T17:30:01.666Z,21.70
2022-07-27T17:32:31.797Z,21.50
2022-07-27T17:35:02.626Z,21.30
2022-07-27T17:37:56.066Z,21.30
2022-07-27T17:40:22.820Z,21.00
2022-07-27T17:42:55.793Z,20.80
2022-07-27T17:45:24.670Z,20.70
2022-07-27T17:47:53.499Z,20.50
2022-07-27T17:50:22.690Z,20.50
2022-07-27T17:52:51.422Z,20.40
2022-07-27T17:55:20.681Z,20.50
2022-07-27T17:57:49.385Z,20.50
2022-07-27T18:00:19.822Z,20.50
2022-07-27T18:02:48.674Z,20.40
2022-07-27T18:05:18.982Z,20.30
2022-07-27T18:07:51.862Z,20.20
2022-07-27T18:10:21.517Z,20.20
2022-07-27T18:12:50.546Z,20.00
2022-07-27T18:15:38.643Z,19.80
2022-07-27T18:18:07.641Z,19.70
2022-07-27T18:20:36.499Z,19.60
2022-07-27T18:23:05.522Z,19.50
2022-07-27T18:25:34.599Z,19.40
2022-07-27T18:28:03.247Z,19.40
2022-07-27T18:30:33.531Z,19.30
2022-07-27T18:33:02.606Z,19.20
2022-07-27T18:35:31.758Z,19.10
2022-07-27T18:38:01.128Z,19.00
2022-07-27T18:40:29.958Z,18.80
2022-07-27T18:42:58.753Z,18.70
2022-07-27T18:45:34.330Z,18.50
2022-07-27T18:48:05.422Z,18.40
2022-07-27T18:50:38.972Z,18.20
2022-07-27T18:53:08.320Z,18.10
2022-07-27T18:55:37.691Z,18.00
2022-07-27T18:58:07.339Z,17.90
2022-07-27T19:00:36.290Z,17.80
2022-07-27T19:03:07.555Z,17.70
2022-07-27T19:05:41.708Z,17.60
2022-07-27T19:08:13.293Z,17.50
2022-07-27T19:10:43.118Z,17.50
2022-07-27T19:13:12.439Z,17.50
2022-07-27T19:15:41.865Z,17.60
2022-07-27T19:18:11.983Z,17.50
2022-07-27T19:20:44.305Z,17.50
2022-07-27T19:23:13.658Z,17.40
2022-07-27T19:25:42.631Z,17.30
2022-07-27T19:28:11.261Z,17.30
2022-07-27T19:30:40.092Z,17.20
2022-07-27T19:33:08.855Z,17.10
2022-07-27T19:35:38.996Z,17.10
2022-07-27T19:38:08.777Z,17.00
2022-07-27T19:40:46.020Z,17.00
2022-07-27T19:43:15.673Z,16.90
2022-07-27T19:45:44.901Z,16.90
2022-07-27T19:48:13.871Z,16.80
2022-07-27T19:50:45.295Z,16.70
2022-07-27T19:53:14.406Z,16.60
2022-07-27T19:55:43.601Z,16.60
2022-07-27T19:58:19.202Z,16.60
2022-07-27T20:00:51.010Z,16.60
2022-07-27T20:03:20.094Z,16.80
2022-07-27T20:05:51.035Z,16.80
2022-07-27T20:08:20.117Z,17.00
2022-07-27T20:10:48.856Z,17.00
2022-07-27T20:13:19.316Z,17.00
2022-07-27T20:15:48.115Z,17.00
2022-07-27T20:18:21.115Z,17.00
2022-07-27T20:20:51.385Z,17.20
2022-07-27T20:23:21.037Z,17.00
2022-07-27T20:25:50.355Z,17.10
2022-07-27T20:28:19.067Z,17.10
2022-07-27T20:30:47.931Z,17.10
2022-07-27T20:33:21.435Z,17.00
2022-07-27T20:35:51.584Z,17.00
2022-07-27T20:38:20.250Z,16.90
2022-07-27T20:40:48.923Z,16.90
2022-07-27T20:43:18.016Z,16.80
2022-07-27T20:45:46.805Z,16.70
2022-07-27T20:48:15.693Z,16.60
2022-07-27T20:50:44.400Z,16.60
2022-07-27T20:53:14.818Z,16.50
2022-07-27T20:55:44.322Z,16.50
2022-07-27T20:58:14.004Z,16.50
2022-07-27T21:00:42.930Z,16.40
2022-07-27T21:03:12.358Z,16.30
2022-07-27T21:05:41.140Z,16.30
2022-07-27T21:08:10.225Z,16.20
2022-07-27T21:10:40.404Z,16.10
2022-07-27T21:13:09.392Z,16.20
2022-07-27T21:15:38.255Z,16.20
2022-07-27T21:18:07.101Z,16.20
2022-07-27T21:20:36.004Z,16.30
2022-07-27T21:23:22.068Z,16.20
2022-07-27T21:25:52.400Z,16.30
2022-07-27T21:28:24.159Z,16.20
2022-07-27T21:30:56.930Z,16.30
2022-07-27T21:33:25.787Z,16.20
2022-07-27T21:35:54.669Z,16.20
2022-07-27T21:38:24.780Z,16.20
2022-07-27T21:40:55.655Z,16.20
2022-07-27T21:43:24.571Z,16.20
2022-07-27T21:45:55.542Z,16.20
2022-07-27T21:48:24.288Z,16.20
2022-07-27T21:50:53.022Z,16.20
2022-07-27T21:53:21.964Z,16.20
2022-07-27T21:55:50.681Z,16.30
2022-07-27T21:58:21.077Z,16.30
2022-07-27T22:00:50.245Z,16.20
2022-07-27T22:03:19.017Z,16.10
2022-07-27T22:05:48.094Z,16.00
2022-07-27T22:08:16.759Z,16.00
2022-07-27T22:10:45.636Z,15.90
2022-07-27T22:13:14.538Z,15.90
2022-07-27T22:15:46.043Z,15.80
2022-07-27T22:18:14.816Z,15.70
2022-07-27T22:20:43.931Z,15.60
2022-07-27T22:23:12.687Z,15.50
2022-07-27T22:25:41.717Z,15.40
2022-07-27T22:28:10.611Z,15.30
2022-07-27T22:30:40.342Z,15.30
2022-07-27T22:33:10.658Z,15.20
2022-07-27T22:35:39.528Z,15.00
2022-07-27T22:38:08.569Z,15.00
2022-07-27T22:40:37.433Z,15.00
2022-07-27T22:43:06.125Z,15.10
2022-07-27T22:45:34.901Z,15.00
2022-07-27T22:48:03.630Z,15.00
2022-07-27T22:50:34.210Z,14.90
2022-07-27T22:53:03.342Z,14.80
2022-07-27T22:55:32.150Z,14.70
2022-07-27T22:58:00.963Z,14.60
2022-07-27T23:00:30.110Z,14.60
2022-07-27T23:02:59.256Z,14.50
2022-07-27T23:05:28.034Z,14.40
2022-07-27T23:07:58.338Z,14.40
2022-07-27T23:10:44.895Z,14.30
2022-07-27T23:13:14.286Z,14.20
2022-07-27T23:15:43.206Z,14.10
2022-07-27T23:18:12.080Z,14.10
2022-07-27T23:20:41.790Z,14.10
2022-07-27T23:23:16.143Z,14.00
2022-07-27T23:25:46.050Z,14.00
2022-07-27T23:28:16.390Z,13.90
2022-07-27T23:30:45.478Z,13.90
2022-07-27T23:33:14.318Z,13.80
2022-07-27T23:35:43.113Z,13.80
2022-07-27T23:38:13.665Z,13.70
2022-07-27T23:40:50.266Z,13.80
2022-07-27T23:43:18.969Z,13.80
2022-07-27T23:45:51.364Z,13.70
2022-07-27T23:48:20.292Z,13.60
2022-07-27T23:50:54.087Z,13.60
2022-07-27T23:53:24.958Z,13.50
2022-07-27T23:55:54.213Z,13.50
2022-07-27T23:58:23.099Z,13.40
